Time;durP1;ratioP1;P1;durP2;ratioP2;P2;SDS_P1;SDS_P2;PMS_P1;PMS_P2;Temp;Humidity;BMP_temperature;BMP_pressure;BME280_temperature;BME280_humidity;BME280_pressure;Samples;Min_cycle;Max_cycle;Signal;HPM_P1;HPM_P2
2023/04/04 00:00:26;;;;;;;17.08;10.80;;;;;;;17.67;41.91;103180.50;5044339;28;20053;-31
2023/04/04 00:02:52;;;;;;;18.48;11.10;;;;;;;17.65;41.27;103183.28;5050245;28;20429;-30
2023/04/04 00:05:19;;;;;;;19.23;11.80;;;;;;;17.63;41.50;103176.28;5040251;28;20230;-31
2023/04/04 00:07:46;;;;;;;16.40;10.35;;;;;;;17.61;41.64;103171.03;5044501;28;20132;-30
2023/04/04 00:10:13;;;;;;;16.77;10.40;;;;;;;17.61;41.59;103172.81;5043380;28;20132;-29
2023/04/04 00:12:40;;;;;;;15.52;10.23;;;;;;;17.58;41.82;103176.56;5042657;28;20080;-30
2023/04/04 00:15:07;;;;;;;18.38;10.25;;;;;;;17.57;42.03;103169.50;5045407;28;20049;-30
2023/04/04 00:17:34;;;;;;;16.23;10.30;;;;;;;17.56;41.67;103162.38;5045947;28;20455;-30
2023/04/04 00:20:03;;;;;;;16.75;9.90;;;;;;;17.56;41.61;103161.53;5043200;28;20053;-30
2023/04/04 00:22:30;;;;;;;15.60;9.63;;;;;;;17.52;41.67;103156.34;5043904;28;20693;-30
2023/04/04 00:32:38;;;;;;;14.80;9.30;;;;;;;17.45;42.05;103146.13;5046712;28;20118;-31
2023/04/04 00:35:05;;;;;;;15.48;9.32;;;;;;;17.42;41.18;103149.84;5045483;28;20975;-30
2023/04/04 00:37:32;;;;;;;15.43;9.40;;;;;;;17.41;42.18;103152.63;5047047;28;20053;-29
2023/04/04 00:39:59;;;;;;;14.18;9.00;;;;;;;17.40;42.19;103145.50;5046959;28;20140;-30
2023/04/04 00:42:26;;;;;;;13.45;8.65;;;;;;;17.38;42.30;103142.06;5046820;28;20048;-29
2023/04/04 00:44:53;;;;;;;14.45;9.63;;;;;;;17.37;42.05;103137.69;5041866;28;20124;-31
2023/04/04 00:47:24;;;;;;;13.32;8.40;;;;;;;17.35;42.18;103144.94;5047842;28;20081;-30
2023/04/04 00:49:51;;;;;;;13.80;8.65;;;;;;;17.35;41.78;103153.84;5045684;28;20083;-30
2023/04/04 00:52:18;;;;;;;14.80;8.55;;;;;;;17.33;41.87;103150.41;5044448;28;20057;-30
2023/04/04 00:54:45;;;;;;;15.07;8.93;;;;;;;17.31;42.39;103151.44;5045226;28;20049;-30
2023/04/04 00:57:11;;;;;;;12.55;8.18;;;;;;;17.29;42.39;103143.50;5047035;28;20051;-30
2023/04/04 00:59:38;;;;;;;14.77;8.82;;;;;;;17.28;41.88;103142.63;5051568;28;20482;-33
2023/04/04 01:02:05;;;;;;;14.15;8.48;;;;;;;17.27;42.00;103143.56;5047391;28;20053;-30
2023/04/04 01:04:32;;;;;;;13.02;8.30;;;;;;;17.25;42.13;103142.81;5048535;28;20056;-31
2023/04/04 01:06:59;;;;;;;11.85;7.88;;;;;;;17.25;42.40;103141.97;5049624;28;20053;-29
2023/04/04 01:09:27;;;;;;;12.65;7.88;;;;;;;17.23;42.20;103144.72;5050008;28;20080;-30
2023/04/04 01:11:54;;;;;;;11.27;7.63;;;;;;;17.23;42.55;103144.72;5048664;28;20400;-30
2023/04/04 01:14:21;;;;;;;13.50;8.05;;;;;;;17.22;42.19;103148.34;5051429;28;20340;-30
2023/04/04 01:16:51;;;;;;;12.43;8.15;;;;;;;17.21;42.39;103143.97;5049331;28;20061;-30
2023/04/04 01:19:35;;;;;;;11.77;7.53;;;;;;;17.18;42.02;103141.47;5049893;28;20083;-30
2023/04/04 01:22:04;;;;;;;11.60;7.03;;;;;;;17.19;41.98;103139.63;5051987;28;20041;-30
2023/04/04 01:24:35;;;;;;;10.75;7.03;;;;;;;17.18;42.20;103137.91;5052404;28;20406;-29
2023/04/04 01:27:02;;;;;;;10.27;6.57;;;;;;;17.16;41.98;103135.31;5051809;28;20041;-29
2023/04/04 01:29:28;;;;;;;11.00;6.47;;;;;;;17.15;42.47;103133.59;5054583;28;20132;-29
2023/04/04 01:32:15;;;;;;;10.63;6.80;;;;;;;17.13;41.99;103145.38;5050667;28;20289;-29
2023/04/04 01:35:06;;;;;;;11.70;7.13;;;;;;;17.12;42.07;103140.94;5051618;28;20052;-30
2023/04/04 01:37:47;;;;;;;10.32;6.25;;;;;;;17.11;42.54;103148.13;5051887;28;20381;-30
2023/04/04 01:40:20;;;;;;;10.38;6.30;;;;;;;17.11;42.24;103158.00;5053206;28;20049;-29
2023/04/04 01:42:48;;;;;;;;;;;;;;;17.08;42.63;103150.13;5055542;28;20142;-30
2023/04/04 01:45:14;;;;;;;10.55;6.18;;;;;;;17.09;42.34;103147.38;5052059;28;20189;-29
2023/04/04 01:47:42;;;;;;;13.25;6.90;;;;;;;17.08;41.76;103150.13;5054155;28;20053;-29
2023/04/04 01:50:10;;;;;;;9.55;6.05;;;;;;;17.05;42.31;103159.22;5047112;28;20349;-30
2023/04/04 01:52:37;;;;;;;11.20;6.53;;;;;;;17.03;42.40;103151.25;5049244;28;20064;-29
2023/04/04 01:55:04;;;;;;;9.00;5.85;;;;;;;17.02;42.46;103148.69;5046381;28;20045;-29
2023/04/04 01:57:30;;;;;;;9.82;6.35;;;;;;;17.01;42.25;103144.28;5048198;28;20489;-30
2023/04/04 01:59:57;;;;;;;13.35;5.80;;;;;;;17.01;42.21;103141.59;5048156;28;20060;-30
2023/04/04 02:02:23;;;;;;;10.15;6.07;;;;;;;16.99;41.85;103140.81;5048417;28;20762;-30
2023/04/04 02:04:51;;;;;;;8.13;5.72;;;;;;;16.98;42.51;103139.09;5049452;28;20152;-30
2023/04/04 02:07:18;;;;;;;10.57;6.10;;;;;;;16.97;42.35;103134.72;5048608;28;20448;-29
2023/04/04 02:09:45;;;;;;;8.77;5.70;;;;;;;16.95;41.94;103139.28;5048836;28;20085;-29
2023/04/04 02:12:11;;;;;;;8.25;5.47;;;;;;;16.95;42.51;103145.50;5048033;28;20448;-29
2023/04/04 02:14:38;;;;;;;8.32;5.70;;;;;;;16.94;42.54;103148.28;5047341;28;20065;-30
2023/04/04 02:17:05;;;;;;;7.50;5.40;;;;;;;16.94;42.16;103148.28;5047004;28;20063;-31
2023/04/04 02:19:32;;;;;;;10.85;5.97;;;;;;;16.92;42.27;103145.66;5047336;28;20049;-29
2023/04/04 02:21:59;;;;;;;7.60;5.25;;;;;;;16.91;42.80;103153.81;5049232;28;20559;-30
2023/04/04 02:24:25;;;;;;;9.07;5.85;;;;;;;16.90;42.75;103146.72;5051827;28;20111;-30
2023/04/04 02:26:52;;;;;;;8.63;5.05;;;;;;;16.90;42.78;103152.09;5051709;28;20431;-29
2023/04/04 02:29:18;;;;;;;8.48;4.75;;;;;;;16.87;42.38;103147.75;5047304;28;20063;-30
2023/04/04 02:31:45;;;;;;;9.48;5.57;;;;;;;16.87;42.75;103152.25;5047972;28;20053;-29
2023/04/04 02:34:11;;;;;;;10.05;5.55;;;;;;;16.85;42.45;103146.16;5052633;28;20432;-30
2023/04/04 02:36:38;;;;;;;6.43;4.60;;;;;;;16.83;42.88;103143.53;5048592;28;20421;-30
2023/04/04 02:39:04;;;;;;;7.20;5.22;;;;;;;16.83;42.28;103146.22;5049758;28;20049;-30
2023/04/04 02:41:31;;;;;;;8.40;4.85;;;;;;;16.81;42.34;103141.91;5049368;28;20465;-30
2023/04/04 02:43:58;;;;;;;7.78;5.10;;;;;;;16.81;42.72;103139.25;5051101;28;20344;-30
2023/04/04 02:46:24;;;;;;;7.78;5.05;;;;;;;16.78;42.52;103138.44;5049931;28;20056;-29
2023/04/04 02:48:51;;;;;;;6.57;4.40;;;;;;;16.79;42.68;103133.94;5054722;28;20122;-29
2023/04/04 02:51:18;;;;;;;6.35;4.40;;;;;;;16.77;42.98;103126.03;5052979;28;20454;-30
2023/04/04 02:53:45;;;;;;;7.63;5.00;;;;;;;16.76;42.50;103129.66;5050533;28;20135;-31
2023/04/04 02:56:12;;;;;;;7.13;4.85;;;;;;;16.75;42.55;103122.56;5052883;28;20059;-30
2023/04/04 02:58:38;;;;;;;7.10;4.95;;;;;;;16.74;42.16;103118.16;5051579;28;20052;-30
2023/04/04 03:01:07;;;;;;;7.75;4.82;;;;;;;16.73;42.34;103104.88;5049928;28;20049;-30
2023/04/04 03:03:34;;;;;;;7.10;4.72;;;;;;;16.73;42.39;103118.25;5047236;28;20098;-30
2023/04/04 03:06:01;;;;;;;6.32;4.25;;;;;;;16.71;42.80;103115.63;5046866;28;20041;-29
2023/04/04 03:08:27;;;;;;;6.72;4.45;;;;;;;16.70;43.17;103113.91;5046253;28;20051;-31
2023/04/04 03:10:54;;;;;;;6.72;4.45;;;;;;;16.70;42.72;103116.59;5044069;28;20049;-29
2023/04/04 03:13:20;;;;;;;5.85;3.97;;;;;;;16.69;42.59;103122.91;5048279;28;20061;-31
2023/04/04 03:15:48;;;;;;;7.70;4.35;;;;;;;16.68;42.53;103126.53;5040042;28;20332;-29
2023/04/04 03:18:15;;;;;;;7.10;4.50;;;;;;;16.67;42.63;103123.91;5042159;28;20045;-30
2023/04/04 03:20:41;;;;;;;6.05;4.20;;;;;;;16.66;42.88;103115.03;5049192;28;20171;-30
2023/04/04 03:23:08;;;;;;;5.88;4.05;;;;;;;16.65;42.76;103116.00;5045073;28;20344;-30
2023/04/04 03:25:35;;;;;;;5.40;3.95;;;;;;;16.63;43.02;103117.88;5042487;28;20548;-30
2023/04/04 03:28:11;;;;;;;6.00;3.78;;;;;;;16.62;42.74;103121.53;5048444;28;20053;-31
2023/04/04 03:30:38;;;;;;;6.97;4.03;;;;;;;16.62;42.37;103115.31;5047629;28;20048;-31
2023/04/04 03:33:08;;;;;;;6.55;3.95;;;;;;;16.60;42.29;103118.06;5046489;28;20126;-30
2023/04/04 03:35:39;;;;;;;6.57;3.88;;;;;;;16.59;42.97;103115.47;5048841;28;20132;-31
2023/04/04 03:38:07;;;;;;;6.05;3.88;;;;;;;16.60;42.22;103118.06;5045946;28;20049;-32
2023/04/04 03:40:34;;;;;;;6.88;3.65;;;;;;;16.60;42.36;103112.69;5045266;28;20049;-30
2023/04/04 03:43:03;;;;;;;5.10;3.60;;;;;;;16.70;42.90;103116.59;5045506;28;20476;-30
2023/04/04 03:45:33;;;;;;;5.93;4.03;;;;;;;16.81;42.42;103121.34;5047730;28;20376;-30
2023/04/04 03:47:59;;;;;;;5.53;3.55;;;;;;;16.89;42.74;103111.06;5043621;28;20059;-30
2023/04/04 03:50:26;;;;;;;5.82;3.80;;;;;;;16.98;42.34;103118.53;5046013;28;20060;-31
2023/04/04 03:52:52;;;;;;;5.70;3.65;;;;;;;17.07;42.46;103111.75;5044769;28;20055;-30
2023/04/04 03:55:19;;;;;;;5.38;3.70;;;;;;;17.16;41.80;103121.91;5046449;28;20385;-32
2023/04/04 03:57:46;;;;;;;6.32;4.10;;;;;;;17.24;41.36;103116.09;5048544;28;20060;-32
2023/04/04 04:00:13;;;;;;;5.30;3.53;;;;;;;17.32;41.55;103110.28;5046790;28;20053;-30
2023/04/04 04:02:39;;;;;;;5.70;3.47;;;;;;;17.37;41.63;103119.78;5046262;28;20059;-32
2023/04/04 04:05:06;;;;;;;5.45;3.47;;;;;;;17.41;41.51;103121.31;5043750;28;20417;-32
2023/04/04 04:07:33;;;;;;;5.43;3.90;;;;;;;17.45;41.01;103113.94;5046520;28;20060;-31
2023/04/04 04:10:00;;;;;;;7.15;3.90;;;;;;;17.46;41.12;103105.78;5048814;28;20048;-31
2023/04/04 04:12:26;;;;;;;5.03;3.25;;;;;;;17.49;41.59;103112.81;5049647;28;20049;-31
2023/04/04 04:18:46;;;;;;;5.25;3.38;;;;;;;17.51;41.24;103114.41;5045750;28;20597;-31
2023/04/04 04:21:13;;;;;;;5.45;3.10;;;;;;;17.51;40.63;103116.22;5049689;28;20068;-30
2023/04/04 04:23:40;;;;;;;4.35;3.00;;;;;;;17.51;40.73;103117.09;5051620;28;20048;-32
2023/04/04 04:26:06;;;;;;;4.50;3.10;;;;;;;17.51;40.79;103109.03;5050255;28;20322;-32
2023/04/04 04:28:33;;;;;;;4.97;2.80;;;;;;;17.49;40.53;103107.44;5041368;28;20063;-31
2023/04/04 04:31:05;;;;;;;5.07;3.42;;;;;;;17.49;40.72;103110.13;5043237;28;20447;-31
2023/04/04 04:33:32;;;;;;;4.03;3.08;;;;;;;17.47;40.68;103118.22;5037600;28;20045;-31
2023/04/04 04:36:00;;;;;;;4.65;3.05;;;;;;;17.45;40.52;103114.81;5053004;28;21051;-32
2023/04/04 04:38:28;;;;;;;4.75;3.33;;;;;;;17.41;40.76;103113.25;5053218;28;20057;-30
2023/04/04 04:40:55;;;;;;;5.70;3.65;;;;;;;17.35;40.83;103120.81;5050507;28;20128;-30
2023/04/04 04:43:23;;;;;;;5.70;3.17;;;;;;;17.27;40.68;103114.09;5054640;28;20053;-31
2023/04/04 04:45:49;;;;;;;7.85;3.85;;;;;;;17.20;41.17;103123.44;5052079;28;20041;-32
2023/04/04 04:48:16;;;;;;;7.68;3.63;;;;;;;17.12;40.89;103125.72;5054082;28;20095;-31
2023/04/04 04:50:47;;;;;;;5.63;3.55;;;;;;;17.03;41.49;103127.16;5052351;28;20064;-30
2023/04/04 04:53:13;;;;;;;6.22;3.33;;;;;;;16.95;41.59;103129.41;5051499;28;20091;-30
2023/04/04 04:55:41;;;;;;;4.78;2.85;;;;;;;16.86;41.80;103126.44;5053874;28;20044;-30
2023/04/04 04:58:09;;;;;;;5.55;3.58;;;;;;;16.78;41.45;103129.56;5052549;28;20056;-32
2023/04/04 05:00:36;;;;;;;5.53;3.35;;;;;;;16.71;42.12;103125.47;5052414;28;20115;-31
2023/04/04 05:03:06;;;;;;;5.25;3.67;;;;;;;16.61;41.96;103133.19;5051626;28;20045;-31
2023/04/04 05:05:34;;;;;;;7.30;4.68;;;;;;;16.53;42.83;103138.13;5055095;28;20090;-31
2023/04/04 05:08:03;;;;;;;4.45;3.17;;;;;;;16.47;43.20;103138.44;5051515;28;20056;-30
2023/04/04 05:10:30;;;;;;;4.88;2.97;;;;;;;16.41;42.27;103137.00;5054356;28;20373;-30
2023/04/04 05:12:57;;;;;;;5.88;3.05;;;;;;;16.38;42.62;103133.63;5054587;28;20055;-31
2023/04/04 05:15:30;;;;;;;5.32;3.25;;;;;;;16.33;42.58;103131.22;5051258;28;20045;-31
2023/04/04 05:17:57;;;;;;;5.25;3.33;;;;;;;16.33;43.31;103133.91;5051422;28;20061;-30
2023/04/04 05:20:24;;;;;;;5.15;3.30;;;;;;;16.33;43.26;103125.88;5054312;28;20053;-32
2023/04/04 05:22:50;;;;;;;6.32;3.50;;;;;;;16.35;42.64;103126.63;5053857;28;20530;-31
2023/04/04 05:25:17;;;;;;;4.70;3.08;;;;;;;16.34;42.56;103138.28;5053873;28;20062;-30
2023/04/04 05:27:47;;;;;;;6.30;3.83;;;;;;;16.33;42.55;103133.91;5052944;28;20049;-30
2023/04/04 05:30:15;;;;;;;5.53;3.33;;;;;;;16.35;42.84;103131.13;5052660;28;20049;-31
2023/04/04 05:32:45;;;;;;;4.85;2.90;;;;;;;16.35;43.31;103134.66;5054710;28;20056;-31
2023/04/04 05:35:12;;;;;;;5.43;3.28;;;;;;;16.39;42.83;103143.38;5051035;28;20439;-30
2023/04/04 05:37:39;;;;;;;6.97;4.43;;;;;;;16.40;42.54;103137.97;5051227;28;20040;-31
2023/04/04 05:40:07;;;;;;;5.85;3.53;;;;;;;16.52;42.57;103139.03;5052900;28;20063;-30
2023/04/04 05:42:33;;;;;;;5.95;3.40;;;;;;;16.67;42.91;103140.00;5050585;28;20049;-30
2023/04/04 05:45:00;;;;;;;5.28;3.08;;;;;;;16.82;41.97;103139.13;5048005;28;20052;-31
2023/04/04 05:47:26;;;;;;;6.60;3.72;;;;;;;16.98;42.70;103144.47;5048369;28;20060;-31
2023/04/04 05:49:53;;;;;;;5.57;3.70;;;;;;;17.12;41.74;103139.13;5051046;28;20080;-31
2023/04/04 05:52:20;;;;;;;5.25;3.38;;;;;;;17.26;42.06;103138.31;5045953;28;20055;-30
2023/04/04 05:54:47;;;;;;;4.40;3.13;;;;;;;17.39;41.10;103139.28;5050203;28;20045;-31
2023/04/04 05:57:13;;;;;;;6.32;3.33;;;;;;;17.47;41.14;103130.78;5053067;28;20426;-31
2023/04/04 05:59:40;;;;;;;5.40;3.38;;;;;;;17.54;41.63;103132.13;5052929;28;20084;-31
2023/04/04 06:02:07;;;;;;;4.90;3.20;;;;;;;17.59;41.82;103140.75;5050461;28;20508;-32
2023/04/04 06:04:33;;;;;;;6.70;3.45;;;;;;;17.62;41.51;103126.31;5049721;28;20056;-30
2023/04/04 06:07:00;;;;;;;5.97;3.75;;;;;;;17.64;41.64;103127.91;5053544;28;20080;-31
2023/04/04 06:09:27;;;;;;;6.13;3.40;;;;;;;17.65;41.27;103137.72;5051698;28;20391;-30
2023/04/04 06:11:53;;;;;;;6.80;3.35;;;;;;;17.65;41.15;103132.34;5050135;28;20049;-30
2023/04/04 06:14:20;;;;;;;5.20;3.63;;;;;;;17.64;41.38;103138.63;5051567;28;20049;-30
2023/04/04 06:16:46;;;;;;;5.88;3.35;;;;;;;17.63;41.32;103144.13;5049260;28;20448;-29
2023/04/04 06:19:13;;;;;;;5.70;3.55;;;;;;;17.62;41.19;103134.34;5050079;28;20053;-29
2023/04/04 06:21:40;;;;;;;7.05;3.50;;;;;;;17.60;41.17;103129.06;5048926;28;20048;-30
2023/04/04 06:24:06;;;;;;;6.18;3.47;;;;;;;17.62;41.78;103131.66;5051911;28;20064;-30
2023/04/04 06:26:33;;;;;;;5.15;3.22;;;;;;;17.62;41.45;103134.34;5052582;28;20063;-29
2023/04/04 06:28:59;;;;;;;5.28;3.17;;;;;;;17.64;41.53;103125.22;5050429;28;20048;-30
2023/04/04 06:31:26;;;;;;;4.57;3.28;;;;;;;17.67;41.62;103116.16;5050069;28;20122;-29
2023/04/04 06:33:53;;;;;;;4.85;3.20;;;;;;;17.70;40.89;103115.97;5049912;28;20322;-30
2023/04/04 06:36:20;;;;;;;5.28;3.13;;;;;;;17.73;41.44;103122.00;5051966;28;20041;-29
2023/04/04 06:38:46;;;;;;;5.82;3.83;;;;;;;17.76;41.21;103127.19;5051542;28;20056;-29
2023/04/04 06:41:13;;;;;;;5.40;3.00;;;;;;;17.81;41.15;103134.06;5049614;28;20052;-30
2023/04/04 06:43:40;;;;;;;5.63;3.72;;;;;;;17.82;40.61;103135.81;5050449;28;20053;-31
2023/04/04 06:46:07;;;;;;;5.18;3.22;;;;;;;17.85;41.05;103138.28;5048786;28;20127;-31
2023/04/04 06:48:33;;;;;;;5.00;3.53;;;;;;;17.88;40.68;103152.38;5051326;28;20468;-30
2023/04/04 06:51:00;;;;;;;5.43;3.10;;;;;;;17.90;40.54;103147.78;5051029;28;20053;-29
2023/04/04 06:53:26;;;;;;;4.72;2.92;;;;;;;17.93;40.56;103149.41;5049410;28;20085;-29
2023/04/04 06:55:53;;;;;;;6.07;3.03;;;;;;;17.97;40.24;103148.28;5050190;28;20041;-30
2023/04/04 06:58:20;;;;;;;6.00;3.33;;;;;;;17.98;40.42;103144.63;5049157;28;20480;-30
2023/04/04 07:00:46;;;;;;;5.82;3.45;;;;;;;18.00;40.09;103150.75;5047656;28;20098;-30
2023/04/04 07:03:13;;;;;;;5.90;3.45;;;;;;;18.02;40.47;103151.53;5047579;28;20068;-29
2023/04/04 07:05:40;;;;;;;5.63;3.30;;;;;;;18.02;40.02;103154.22;5050308;28;20049;-29
2023/04/04 07:08:07;;;;;;;5.00;2.90;;;;;;;18.03;40.09;103155.94;5052070;28;20076;-30
2023/04/04 07:10:34;;;;;;;5.72;3.50;;;;;;;18.00;40.23;103151.59;5051500;28;20036;-36
2023/04/04 07:13:01;;;;;;;4.70;2.92;;;;;;;17.98;40.41;103155.34;5049280;28;20041;-30
2023/04/04 07:15:27;;;;;;;5.28;3.22;;;;;;;17.97;40.32;103156.31;5047135;28;20053;-30
2023/04/04 07:17:54;;;;;;;4.32;2.95;;;;;;;17.98;40.23;103147.31;5044824;28;20057;-31
2023/04/04 07:20:21;;;;;;;4.63;2.70;;;;;;;17.96;40.50;103157.25;5041652;28;20449;-30
2023/04/04 07:22:48;;;;;;;4.75;3.10;;;;;;;17.94;40.33;103156.50;5049574;28;20044;-29
2023/04/04 07:25:14;;;;;;;4.47;2.70;;;;;;;17.93;40.53;103150.28;5051315;28;20200;-30
2023/04/04 07:27:41;;;;;;;6.75;3.20;;;;;;;17.92;40.39;103155.72;5050206;28;20073;-30
2023/04/04 07:30:08;;;;;;;5.55;3.30;;;;;;;17.90;40.67;103161.22;5048471;28;20056;-31
2023/04/04 07:32:37;;;;;;;4.72;2.50;;;;;;;17.88;40.62;103156.88;5050567;28;20049;-30
2023/04/04 07:35:06;;;;;;;4.47;2.90;;;;;;;17.85;40.51;103152.59;5041882;28;20057;-30
2023/04/04 07:37:36;;;;;;;4.10;2.60;;;;;;;17.86;40.52;103153.44;5050178;28;20041;-29
2023/04/04 07:40:04;;;;;;;4.95;2.90;;;;;;;17.84;40.77;103141.94;5050890;28;20122;-30
2023/04/04 07:42:31;;;;;;;3.78;2.88;;;;;;;17.82;41.05;103146.56;5050351;28;20094;-29
2023/04/04 07:44:57;;;;;;;4.15;2.55;;;;;;;17.82;40.83;103150.09;5046954;28;20057;-30
2023/04/04 07:47:25;;;;;;;5.80;3.20;;;;;;;17.80;40.99;103141.25;5049487;28;20128;-30
2023/04/04 07:49:51;;;;;;;3.85;2.65;;;;;;;17.80;40.95;103143.09;5052132;28;20040;-29
2023/04/04 07:52:18;;;;;;;4.38;2.75;;;;;;;17.80;40.93;103148.44;5048359;28;20436;-31
2023/04/04 07:54:46;;;;;;;5.25;2.60;;;;;;;17.79;41.37;103144.91;5045458;28;20611;-31
2023/04/04 07:57:13;;;;;;;4.00;2.58;;;;;;;17.80;40.79;103143.09;5043903;28;20091;-31
2023/04/04 07:59:40;;;;;;;3.70;2.50;;;;;;;17.81;41.16;103139.44;5045303;28;20427;-29
2023/04/04 08:02:07;;;;;;;3.83;2.58;;;;;;;17.82;41.04;103142.03;5047608;28;20053;-32
2023/04/04 08:04:33;;;;;;;3.33;2.50;;;;;;;17.84;41.27;103141.94;5047431;28;20048;-30
2023/04/04 08:07:00;;;;;;;4.13;2.58;;;;;;;17.84;41.37;103142.78;5049718;28;20477;-29
2023/04/04 08:09:32;;;;;;;4.22;2.55;;;;;;;17.87;41.35;103141.75;5049447;28;20053;-30
2023/04/04 08:12:01;;;;;;;4.90;2.50;;;;;;;17.89;41.47;103138.03;5044770;28;20436;-31
2023/04/04 08:14:27;;;;;;;6.18;3.05;;;;;;;17.93;40.97;103138.66;5049264;28;20348;-31
2023/04/04 08:16:54;;;;;;;4.40;2.63;;;;;;;17.96;41.29;103141.16;5047833;28;20115;-30
2023/04/04 08:19:21;;;;;;;3.63;2.25;;;;;;;17.99;40.96;103139.16;5051697;28;20647;-29
2023/04/04 08:21:48;;;;;;;2.92;2.15;;;;;;;18.03;41.10;103137.13;5049338;28;20053;-30
2023/04/04 08:24:15;;;;;;;3.90;2.38;;;;;;;18.06;41.09;103139.63;5046524;28;20447;-30
2023/04/04 08:26:42;;;;;;;5.00;2.60;;;;;;;18.10;40.68;103133.09;5051326;28;20079;-29
2023/04/04 08:29:14;;;;;;;3.97;2.15;;;;;;;18.14;40.93;103134.63;5051887;28;20056;-31
2023/04/04 08:31:41;;;;;;;5.30;2.50;;;;;;;18.18;40.59;103127.25;5046874;28;20152;-30
2023/04/04 08:34:08;;;;;;;3.35;2.00;;;;;;;18.22;40.98;103123.41;5050120;28;20048;-29
2023/04/04 08:36:34;;;;;;;3.55;2.30;;;;;;;18.24;40.60;103119.66;5050903;28;20044;-31
2023/04/04 08:39:02;;;;;;;3.70;1.90;;;;;;;18.31;40.48;103119.25;5050675;28;20083;-30
2023/04/04 08:41:31;;;;;;;3.45;2.10;;;;;;;18.34;40.67;103119.94;5049982;28;20629;-32
2023/04/04 08:44:01;;;;;;;3.20;2.30;;;;;;;18.39;40.74;103125.00;5049318;28;21369;-29
2023/04/04 08:46:29;;;;;;;3.03;1.88;;;;;;;18.42;40.37;103122.13;5047749;28;20047;-30
2023/04/04 08:48:58;;;;;;;3.15;2.25;;;;;;;18.46;40.32;103123.63;5053013;28;20490;-29
2023/04/04 08:51:25;;;;;;;3.78;1.95;;;;;;;18.50;40.60;103119.78;5050450;28;20049;-30
2023/04/04 08:53:54;;;;;;;2.92;2.03;;;;;;;18.53;40.63;103119.56;5048770;28;20425;-30
2023/04/04 08:56:22;;;;;;;4.80;2.28;;;;;;;18.57;40.72;103117.53;5050425;28;20103;-30
2023/04/04 08:58:49;;;;;;;4.13;1.92;;;;;;;18.61;40.81;103125.28;5048611;28;20107;-30
2023/04/04 09:01:16;;;;;;;2.70;2.10;;;;;;;18.64;40.52;103122.41;5048804;28;20052;-30
2023/04/04 09:03:43;;;;;;;2.72;1.88;;;;;;;18.69;40.36;103122.09;5049528;28;20049;-31
2023/04/04 09:06:11;;;;;;;3.85;1.95;;;;;;;18.72;40.69;103122.78;5047546;28;20053;-30
2023/04/04 09:08:38;;;;;;;4.68;1.85;;;;;;;18.76;40.71;103118.06;5048318;28;20120;-31
2023/04/04 09:11:05;;;;;;;2.05;1.52;;;;;;;18.81;40.69;103123.13;5047505;28;20452;-30
2023/04/04 09:13:32;;;;;;;2.97;1.77;;;;;;;18.85;40.55;103121.97;5048645;28;20756;-29
2023/04/04 09:15:59;;;;;;;2.85;1.77;;;;;;;18.90;40.57;103122.53;5048635;28;20141;-30
2023/04/04 09:18:26;;;;;;;2.65;1.75;;;;;;;18.95;40.33;103128.44;5051717;28;20076;-31
2023/04/04 09:20:52;;;;;;;3.00;1.95;;;;;;;18.98;40.43;103130.94;5032054;28;20045;-30
2023/04/04 09:23:20;;;;;;;5.05;2.20;;;;;;;19.04;40.43;103129.66;5048064;28;20576;-30
2023/04/04 09:25:52;;;;;;;3.47;1.73;;;;;;;19.08;40.25;103136.53;5052843;28;20045;-29
2023/04/04 09:28:30;;;;;;;4.18;1.95;;;;;;;19.13;40.42;103132.56;5046914;28;20041;-31
2023/04/04 09:30:59;;;;;;;3.13;1.75;;;;;;;19.17;40.46;103134.06;5050277;28;20488;-30
2023/04/04 09:33:26;;;;;;;2.40;1.55;;;;;;;19.22;40.54;103128.41;5051804;28;20049;-30
2023/04/04 09:36:08;;;;;;;2.80;1.83;;;;;;;19.29;40.13;103136.88;5053610;28;20049;-30
2023/04/04 09:38:39;;;;;;;2.63;1.50;;;;;;;19.34;40.40;103124.00;5052273;28;20095;-30
2023/04/04 09:41:09;;;;;;;3.58;2.13;;;;;;;19.39;40.26;103120.00;5051591;28;20052;-30
2023/04/04 09:43:38;;;;;;;3.60;1.88;;;;;;;19.46;40.72;103112.38;5054716;28;20053;-30
2023/04/04 09:46:06;;;;;;;3.10;1.60;;;;;;;19.53;40.57;103108.25;5050261;28;20056;-30
2023/04/04 09:48:35;;;;;;;3.85;1.58;;;;;;;19.59;40.30;103110.53;5049039;28;20697;-29
2023/04/04 09:51:06;;;;;;;2.50;1.60;;;;;;;19.67;40.04;103105.50;5050227;28;20071;-29
2023/04/04 09:53:35;;;;;;;4.07;2.10;;;;;;;19.73;39.99;103104.19;5050959;28;20052;-30
2023/04/04 09:56:02;;;;;;;4.05;1.80;;;;;;;19.80;39.78;103110.00;5050552;28;20057;-30
2023/04/04 09:58:31;;;;;;;2.53;1.60;;;;;;;19.86;40.01;103101.47;5053307;28;20447;-29
2023/04/04 10:01:03;;;;;;;2.30;1.70;;;;;;;19.92;40.27;103109.13;5050291;28;20056;-31
2023/04/04 10:03:30;;;;;;;4.88;1.65;;;;;;;19.99;39.86;103093.41;5052790;28;20056;-29
2023/04/04 10:06:03;;;;;;;3.88;2.10;;;;;;;20.04;40.09;103102.84;5051229;28;20045;-31
2023/04/04 10:08:33;;;;;;;5.25;2.40;;;;;;;20.11;40.02;103098.75;5051928;28;20551;-30
2023/04/04 10:11:02;;;;;;;5.43;2.10;;;;;;;20.16;40.06;103088.47;5051347;28;20644;-30
2023/04/04 10:13:43;;;;;;;5.63;2.08;;;;;;;20.23;39.80;103093.44;5050336;28;20049;-31
2023/04/04 10:16:10;;;;;;;9.40;2.25;;;;;;;20.30;39.67;103091.97;5050664;28;20044;-30
2023/04/04 10:18:38;;;;;;;6.18;2.47;;;;;;;20.35;40.13;103100.59;5052255;28;20065;-31
2023/04/04 10:21:07;;;;;;;5.68;2.03;;;;;;;20.40;39.29;103096.56;5051931;28;20080;-32
2023/04/04 10:23:39;;;;;;;7.45;2.08;;;;;;;20.45;39.41;103097.09;5049177;28;20045;-30
2023/04/04 10:26:06;;;;;;;9.55;2.22;;;;;;;20.50;39.29;103085.13;5052267;28;20045;-31
2023/04/04 10:28:33;;;;;;;4.80;2.58;;;;;;;20.55;39.78;103086.53;5046420;28;20048;-31
2023/04/04 10:31:23;;;;;;;5.47;2.10;;;;;;;20.60;39.05;103083.47;5041120;28;20083;-31
2023/04/04 10:34:08;;;;;;;7.15;2.22;;;;;;;20.66;39.61;103080.31;5047591;28;20383;-31
2023/04/04 10:36:48;;;;;;;4.85;2.25;;;;;;;20.70;39.15;103079.09;5049280;28;20063;-30
2023/04/04 10:39:22;;;;;;;4.78;2.03;;;;;;;20.75;39.12;103079.63;5050894;28;20141;-30
2023/04/04 10:41:51;;;;;;;7.20;2.22;;;;;;;20.80;39.47;103072.03;5051038;28;20309;-30
2023/04/04 10:44:32;;;;;;;4.65;2.28;;;;;;;20.83;39.47;103077.22;5049273;28;20132;-30
2023/04/04 10:47:07;;;;;;;4.28;1.88;;;;;;;20.89;39.18;103079.41;5050053;28;20053;-30
2023/04/04 10:49:35;;;;;;;6.13;2.25;;;;;;;20.93;39.03;103069.25;5050518;28;20045;-32
2023/04/04 10:52:02;;;;;;;3.63;1.90;;;;;;;20.98;38.94;103064.34;5050868;28;20080;-30
2023/04/04 10:54:29;;;;;;;3.13;1.70;;;;;;;21.02;38.67;103059.59;5050405;28;20073;-30
2023/04/04 10:57:00;;;;;;;6.35;2.70;;;;;;;21.05;38.72;103056.66;5051617;28;20127;-30
2023/04/04 10:59:26;;;;;;;4.60;1.75;;;;;;;21.08;39.04;103051.88;5051739;28;20048;-31
2023/04/04 11:01:59;;;;;;;4.03;1.88;;;;;;;21.13;38.90;103054.22;5051241;28;20124;-30
2023/04/04 11:04:33;;;;;;;3.53;1.30;;;;;;;21.16;39.10;103054.00;5050688;28;20055;-31
2023/04/04 11:07:10;;;;;;;4.45;2.10;;;;;;;21.19;38.82;103051.06;5049298;28;20430;-31
2023/04/04 11:10:13;;;;;;;6.47;1.80;;;;;;;21.21;39.01;103051.78;5050904;28;20053;-32
2023/04/04 11:12:44;;;;;;;4.00;2.10;;;;;;;21.27;38.59;103051.31;5029076;28;20041;-36
2023/04/04 11:15:13;;;;;;;3.97;1.45;;;;;;;21.28;38.70;103053.03;5048522;28;20057;-30
2023/04/04 11:17:45;;;;;;;3.33;1.60;;;;;;;21.30;38.90;103051.03;5050612;28;20372;-31
2023/04/04 11:20:18;;;;;;;6.70;1.88;;;;;;;21.32;38.63;103042.84;5050688;28;20055;-31
2023/04/04 11:22:48;;;;;;;3.17;1.80;;;;;;;21.33;38.76;103045.44;5052524;28;20437;-31
2023/04/04 11:25:41;;;;;;;4.25;1.60;;;;;;;21.32;38.29;103046.44;5049909;28;20060;-32
2023/04/04 11:28:13;;;;;;;5.30;1.73;;;;;;;21.34;38.53;103032.81;5048158;28;20052;-31
2023/04/04 11:30:49;;;;;;;3.92;1.25;;;;;;;21.34;38.67;103019.31;5048606;28;20052;-32
2023/04/04 11:33:26;;;;;;;4.07;1.48;;;;;;;21.34;38.52;103024.72;5050552;28;20084;-30
2023/04/04 11:35:57;;;;;;;5.47;2.05;;;;;;;21.34;38.44;103020.19;5045394;28;20080;-30
2023/04/04 11:38:25;;;;;;;3.10;1.63;;;;;;;21.35;38.90;103016.53;5048587;28;20053;-31
2023/04/04 11:40:53;;;;;;;3.00;1.58;;;;;;;21.35;38.79;103016.53;5050777;28;20090;-33